createdAt,value
2019-04-10T00:00:45.945Z,27.50
2019-04-10T00:03:25.793Z,27.80
2019-04-10T00:05:47.857Z,27.37
2019-04-10T00:08:17.861Z,26.43
2019-04-10T00:10:47.855Z,27.40
2019-04-10T00:13:18.431Z,27.63
2019-04-10T00:15:48.612Z,27.27
2019-04-10T00:18:18.013Z,26.23
2019-04-10T00:20:47.043Z,28.57
2019-04-10T00:23:17.309Z,26.80
2019-04-10T00:25:46.286Z,27.43
2019-04-10T00:28:15.722Z,28.87
2019-04-10T00:30:45.113Z,27.43
2019-04-10T00:33:14.922Z,26.37
2019-04-10T00:35:43.875Z,28.00
2019-04-10T00:38:13.604Z,26.07
2019-04-10T00:40:43.730Z,27.97
2019-04-10T00:43:13.387Z,24.23
2019-04-10T00:45:44.033Z,26.53
2019-04-10T00:48:12.934Z,28.07
2019-04-10T00:50:42.530Z,28.10
2019-04-10T00:53:11.406Z,27.63
2019-04-10T00:55:40.790Z,26.50
2019-04-10T00:58:10.083Z,26.33
2019-04-10T01:00:39.496Z,28.77
2019-04-10T01:03:09.361Z,28.67
2019-04-10T01:05:39.637Z,27.57
2019-04-10T01:08:08.937Z,25.97
2019-04-10T01:10:38.767Z,29.47
2019-04-10T01:13:08.354Z,28.20
2019-04-10T01:15:38.499Z,26.77
2019-04-10T01:18:07.443Z,28.17
2019-04-10T01:20:36.270Z,26.53
2019-04-10T01:23:05.846Z,29.50
2019-04-10T01:25:34.758Z,28.40
2019-04-10T01:28:04.666Z,29.00
2019-04-10T01:30:34.805Z,30.43
2019-04-10T01:33:04.391Z,30.33
2019-04-10T01:35:34.231Z,28.63
2019-04-10T01:38:05.846Z,27.77
2019-04-10T01:40:35.074Z,28.47
2019-04-10T01:43:09.889Z,28.80
2019-04-10T01:45:35.661Z,30.43
2019-04-10T01:48:05.787Z,29.40
2019-04-10T01:50:34.880Z,32.43
2019-04-10T01:53:03.817Z,30.10
2019-04-10T01:55:34.092Z,30.37
2019-04-10T01:58:05.378Z,31.10
2019-04-10T02:00:35.499Z,32.33
2019-04-10T02:03:05.525Z,29.70
2019-04-10T02:05:34.553Z,33.60
2019-04-10T02:08:09.123Z,32.83
2019-04-10T02:10:36.321Z,32.80
2019-04-10T02:13:07.329Z,31.77
2019-04-10T02:15:36.721Z,31.73
2019-04-10T02:18:05.915Z,35.13
2019-04-10T02:20:35.578Z,35.63
2019-04-10T02:23:04.482Z,36.80
2019-04-10T02:25:33.786Z,38.03
2019-04-10T02:28:03.227Z,38.57
2019-04-10T02:30:33.008Z,38.50
2019-04-10T02:33:04.319Z,39.30
2019-04-10T02:35:34.008Z,37.67
2019-04-10T02:38:22.283Z,40.60
2019-04-10T02:40:34.917Z,39.63
2019-04-10T02:43:05.737Z,39.87
2019-04-10T02:45:36.305Z,40.17
2019-04-10T02:48:06.121Z,42.63
2019-04-10T02:50:37.196Z,42.17
2019-04-10T02:53:07.764Z,39.27
2019-04-10T02:55:38.567Z,40.60
2019-04-10T02:58:09.569Z,41.10
2019-04-10T03:00:38.633Z,45.33
2019-04-10T03:03:07.918Z,43.07
2019-04-10T03:05:38.334Z,40.90
2019-04-10T03:08:08.951Z,43.90
2019-04-10T03:10:44.475Z,43.37
2019-04-10T03:13:11.476Z,41.57
2019-04-10T03:15:40.983Z,43.33
2019-04-10T03:18:09.898Z,43.93
2019-04-10T03:20:39.024Z,39.57
2019-04-10T03:23:07.919Z,41.80
2019-04-10T03:25:37.217Z,39.00
2019-04-10T03:28:07.122Z,39.70
2019-04-10T03:30:38.774Z,39.53
2019-04-10T03:33:26.581Z,40.87
2019-04-10T03:35:53.246Z,40.13
2019-04-10T03:38:22.136Z,39.00
2019-04-10T03:40:51.459Z,38.70
2019-04-10T03:43:21.574Z,37.97
2019-04-10T03:45:51.043Z,40.40
2019-04-10T03:48:20.222Z,38.93
2019-04-10T03:50:50.146Z,38.43
2019-04-10T03:53:20.281Z,34.80
2019-04-10T03:55:50.626Z,35.87
2019-04-10T03:58:20.378Z,31.80
2019-04-10T04:00:50.551Z,33.33
2019-04-10T04:03:20.400Z,32.87
2019-04-10T04:05:50.974Z,30.63
2019-04-10T04:08:21.459Z,28.73
2019-04-10T04:10:51.262Z,26.33
2019-04-10T04:13:20.136Z,27.80
2019-04-10T04:15:48.954Z,24.53
2019-04-10T04:18:19.195Z,24.70
2019-04-10T04:20:48.991Z,21.10
2019-04-10T04:23:19.317Z,22.60
2019-04-10T04:25:48.428Z,22.43
2019-04-10T04:28:17.268Z,24.43
2019-04-10T04:30:46.160Z,26.37
2019-04-10T04:33:15.470Z,26.63
2019-04-10T04:35:44.503Z,26.90
2019-04-10T04:38:14.166Z,27.27
2019-04-10T04:40:44.155Z,30.53
2019-04-10T04:43:13.191Z,31.20
2019-04-10T04:45:42.346Z,32.37
2019-04-10T04:48:11.597Z,32.40
2019-04-10T04:50:41.599Z,35.00
2019-04-10T04:53:10.789Z,34.57
2019-04-10T04:55:40.118Z,33.43
2019-04-10T04:58:09.703Z,32.87
2019-04-10T05:00:39.647Z,39.00
2019-04-10T05:03:08.489Z,36.67
2019-04-10T05:05:37.304Z,37.20
2019-04-10T05:08:07.341Z,36.50
2019-04-10T05:10:37.722Z,40.90
2019-04-10T05:13:06.774Z,39.47
2019-04-10T05:15:37.294Z,40.47
2019-04-10T05:18:06.403Z,39.03
2019-04-10T05:20:43.876Z,39.37
2019-04-10T05:23:08.152Z,37.60
2019-04-10T05:25:37.799Z,40.77
2019-04-10T05:28:07.784Z,40.87
2019-04-10T05:30:37.767Z,42.70
2019-04-10T05:33:08.226Z,43.20
2019-04-10T05:35:37.346Z,42.43
2019-04-10T05:38:06.502Z,46.63
2019-04-10T05:40:36.602Z,50.07
2019-04-10T05:43:05.937Z,46.07
2019-04-10T05:45:35.149Z,51.63
2019-04-10T05:48:04.562Z,48.47
2019-04-10T05:50:34.193Z,47.97
2019-04-10T05:53:04.390Z,48.07
2019-04-10T05:55:34.634Z,49.80
2019-04-10T05:58:03.509Z,49.67
2019-04-10T06:00:33.047Z,49.77
2019-04-10T06:03:02.275Z,47.80
2019-04-10T06:05:32.199Z,50.00
2019-04-10T06:08:01.632Z,53.37
2019-04-10T06:10:32.131Z,47.73
2019-04-10T06:13:02.528Z,49.20
2019-04-10T06:15:31.824Z,49.97
2019-04-10T06:18:01.298Z,48.97
2019-04-10T06:20:31.318Z,49.60
2019-04-10T06:23:01.298Z,50.73
2019-04-10T06:25:31.665Z,49.93
2019-04-10T06:28:01.723Z,49.00
2019-04-10T06:30:32.151Z,48.43
2019-04-10T06:33:02.134Z,44.93
2019-04-10T06:35:32.184Z,44.40
2019-04-10T06:38:02.354Z,49.93
2019-04-10T06:40:31.755Z,45.33
2019-04-10T06:43:01.055Z,47.07
2019-04-10T06:45:31.474Z,46.20
2019-04-10T06:48:02.640Z,45.30
2019-04-10T06:50:32.318Z,45.77
2019-04-10T06:53:01.972Z,47.17
2019-04-10T06:55:32.158Z,48.80
2019-04-10T06:58:02.615Z,45.67
2019-04-10T07:00:32.728Z,44.80
2019-04-10T07:03:03.102Z,45.47
2019-04-10T07:05:40.813Z,45.63
2019-04-10T07:08:12.517Z,42.53
2019-04-10T07:10:45.924Z,44.23
2019-04-10T07:13:07.728Z,43.80
2019-04-10T07:15:35.842Z,44.73
2019-04-10T07:18:05.203Z,47.27
2019-04-10T07:20:34.167Z,46.90
2019-04-10T07:23:04.922Z,46.90
2019-04-10T07:25:35.357Z,47.63
2019-04-10T07:28:07.508Z,46.57
2019-04-10T07:30:35.978Z,47.60
2019-04-10T07:33:05.530Z,46.37
2019-04-10T07:35:35.780Z,46.17
2019-04-10T07:38:05.742Z,46.73
2019-04-10T07:40:36.814Z,45.53
2019-04-10T07:43:06.298Z,44.70
2019-04-10T07:45:35.982Z,48.70
2019-04-10T07:48:06.520Z,46.37
2019-04-10T07:50:37.037Z,45.40
2019-04-10T07:53:06.339Z,46.87
2019-04-10T07:55:37.301Z,43.40
2019-04-10T07:58:06.909Z,45.83
2019-04-10T08:00:36.645Z,47.90
2019-04-10T08:03:06.348Z,47.23
2019-04-10T08:05:35.835Z,48.47
2019-04-10T08:08:05.217Z,46.10
2019-04-10T08:10:34.852Z,45.97
2019-04-10T08:13:04.579Z,46.80
2019-04-10T08:15:34.383Z,46.23
2019-04-10T08:18:04.548Z,49.07
2019-04-10T08:20:34.652Z,49.63
2019-04-10T08:23:04.299Z,51.03
2019-04-10T08:25:33.522Z,47.83
2019-04-10T08:28:02.837Z,51.73
2019-04-10T08:30:32.315Z,49.73
2019-04-10T08:33:03.240Z,51.17
2019-04-10T08:35:33.592Z,50.33
2019-04-10T08:38:03.381Z,49.57
2019-04-10T08:40:32.758Z,49.07
2019-04-10T08:43:02.139Z,50.07
2019-04-10T08:45:40.575Z,52.93
2019-04-10T08:48:02.263Z,52.73
2019-04-10T08:50:32.291Z,53.70
2019-04-10T08:53:02.157Z,51.20
2019-04-10T08:55:32.294Z,52.67
2019-04-10T08:58:02.729Z,51.03
2019-04-10T09:00:32.922Z,51.83
2019-04-10T09:03:02.442Z,50.20
2019-04-10T09:05:31.900Z,52.97
2019-04-10T09:08:02.385Z,49.40
2019-04-10T09:10:32.332Z,50.03
2019-04-10T09:13:01.460Z,49.70
2019-04-10T09:15:31.933Z,46.90
2019-04-10T09:18:01.986Z,46.53
2019-04-10T09:20:31.414Z,45.63
2019-04-10T09:23:19.962Z,46.87
2019-04-10T09:25:31.426Z,48.70
2019-04-10T09:28:02.176Z,50.73
2019-04-10T09:30:33.826Z,50.77
2019-04-10T09:33:15.739Z,45.20
2019-04-10T09:35:34.030Z,45.03
2019-04-10T09:38:02.864Z,46.23
2019-04-10T09:40:32.591Z,50.73
2019-04-10T09:43:02.648Z,50.30
2019-04-10T09:45:32.138Z,48.73
2019-04-10T09:48:01.696Z,48.50
2019-04-10T09:50:31.079Z,51.43
2019-04-10T09:53:00.568Z,47.37
2019-04-10T09:55:29.859Z,46.30
2019-04-10T09:58:00.160Z,45.53
2019-04-10T10:00:31.848Z,43.63
2019-04-10T10:03:01.520Z,47.30
2019-04-10T10:05:30.870Z,47.10
2019-04-10T10:08:00.454Z,45.23
2019-04-10T10:10:31.141Z,45.53
2019-04-10T10:13:01.480Z,40.83
2019-04-10T10:15:31.409Z,40.47
2019-04-10T10:18:01.327Z,46.10
2019-04-10T10:20:30.766Z,43.27
2019-04-10T10:23:01.331Z,45.43
2019-04-10T10:25:31.263Z,47.93
2019-04-10T10:28:01.109Z,44.50
2019-04-10T10:30:31.430Z,45.13
2019-04-10T10:33:01.459Z,46.30
2019-04-10T10:35:31.363Z,42.27
2019-04-10T10:38:01.107Z,43.90
2019-04-10T10:40:30.175Z,44.57
2019-04-10T10:43:00.312Z,45.73
2019-04-10T10:45:29.565Z,45.63
2019-04-10T10:47:58.770Z,44.87
2019-04-10T10:50:28.918Z,47.30
2019-04-10T10:52:59.769Z,45.07
2019-04-10T10:55:29.724Z,44.97
2019-04-10T10:57:59.708Z,48.77
2019-04-10T11:00:29.439Z,48.60
2019-04-10T11:02:58.415Z,48.50
2019-04-10T11:05:27.490Z,46.87
2019-04-10T11:07:57.329Z,45.80
2019-04-10T11:10:27.585Z,46.70
2019-04-10T11:12:56.577Z,47.67
2019-04-10T11:15:26.101Z,48.37
2019-04-10T11:17:56.142Z,47.47
2019-04-10T11:20:25.691Z,47.67
2019-04-10T11:22:55.838Z,51.80
2019-04-10T11:25:26.112Z,48.30
2019-04-10T11:27:56.532Z,48.20
2019-04-10T11:30:26.831Z,48.80
2019-04-10T11:32:56.310Z,47.80
2019-04-10T11:35:26.548Z,50.40
2019-04-10T11:37:59.053Z,52.87
2019-04-10T11:40:27.883Z,50.83
2019-04-10T11:42:59.637Z,50.73
2019-04-10T11:45:34.801Z,48.37
2019-04-10T11:48:02.293Z,46.93
2019-04-10T11:50:32.195Z,48.77
2019-04-10T11:53:02.608Z,51.83
2019-04-10T11:55:42.476Z,51.53
2019-04-10T11:58:03.083Z,51.33
2019-04-10T12:00:47.493Z,46.17
2019-04-10T12:03:12.811Z,48.70
2019-04-10T12:05:42.570Z,46.77
2019-04-10T12:13:16.972Z,45.13
2019-04-10T12:15:45.339Z,46.30
2019-04-10T12:18:14.423Z,46.27
2019-04-10T12:20:43.710Z,46.20
2019-04-10T12:23:13.050Z,47.30
2019-04-10T12:25:42.979Z,45.93
2019-04-10T12:28:13.749Z,47.30
2019-04-10T12:30:43.631Z,45.13
2019-04-10T12:33:13.631Z,47.73
2019-04-10T12:35:42.912Z,43.73
2019-04-10T12:38:13.305Z,46.63
2019-04-10T12:40:42.789Z,45.50
2019-04-10T12:43:12.680Z,45.33
2019-04-10T12:45:42.074Z,44.57
2019-04-10T12:48:12.527Z,47.73
2019-04-10T12:50:41.506Z,46.00
2019-04-10T12:53:11.551Z,47.07
2019-04-10T12:55:41.768Z,45.67
2019-04-10T12:58:15.520Z,44.93
2019-04-10T13:00:42.901Z,45.50
2019-04-10T13:03:12.299Z,46.83
2019-04-10T13:05:42.955Z,46.83
2019-04-10T13:08:21.142Z,46.53
2019-04-10T13:10:45.519Z,48.33
2019-04-10T13:13:15.173Z,46.63
2019-04-10T13:15:43.998Z,45.50
2019-04-10T13:18:14.252Z,44.30
2019-04-10T13:20:44.150Z,48.20
2019-04-10T13:23:14.849Z,45.93
2019-04-10T13:25:54.949Z,49.80
2019-04-10T13:28:15.155Z,47.83
2019-04-10T13:30:51.575Z,50.17
2019-04-10T13:33:16.245Z,49.97
2019-04-10T13:35:46.257Z,49.57
2019-04-10T13:38:24.110Z,48.17
2019-04-10T13:40:48.143Z,48.17
2019-04-10T13:43:18.016Z,47.63
2019-04-10T13:45:47.069Z,48.77
2019-04-10T13:48:16.576Z,49.17
2019-04-10T13:50:46.614Z,47.03
2019-04-10T13:53:16.250Z,46.70
2019-04-10T13:55:45.433Z,48.30
2019-04-10T13:58:15.097Z,48.77
2019-04-10T14:00:45.096Z,46.50
2019-04-10T14:03:16.354Z,45.33
2019-04-10T14:05:46.630Z,47.23
2019-04-10T14:08:17.030Z,50.33
2019-04-10T14:10:46.838Z,51.03
2019-04-10T14:13:16.367Z,46.40
2019-04-10T14:15:46.359Z,48.20
2019-04-10T14:18:16.652Z,49.90
2019-04-10T14:20:45.748Z,47.50
2019-04-10T14:23:27.149Z,48.40
2019-04-10T14:26:18.851Z,49.53
2019-04-10T14:28:49.426Z,46.97
2019-04-10T14:31:24.619Z,49.97
2019-04-10T14:33:53.615Z,48.00
2019-04-10T14:36:22.930Z,51.20
2019-04-10T14:38:52.747Z,49.37
2019-04-10T14:41:24.671Z,50.93
2019-04-10T14:43:53.657Z,49.80
2019-04-10T14:46:24.160Z,48.17
2019-04-10T14:48:54.268Z,50.47
2019-04-10T14:51:24.186Z,51.93
2019-04-10T14:53:53.588Z,49.17
2019-04-10T14:56:24.132Z,50.60
2019-04-10T14:58:53.339Z,51.23
2019-04-10T15:01:22.273Z,51.87
2019-04-10T15:03:51.553Z,52.40
2019-04-10T15:06:21.972Z,52.63
2019-04-10T15:08:52.262Z,53.43
2019-04-10T15:11:22.441Z,53.70
2019-04-10T15:13:52.135Z,51.87
2019-04-10T15:16:21.130Z,50.93
2019-04-10T15:18:50.219Z,55.83
2019-04-10T15:21:20.714Z,56.27
2019-04-10T15:23:51.077Z,52.57
2019-04-10T15:26:20.474Z,51.60
2019-04-10T15:28:49.979Z,52.90
2019-04-10T15:31:19.634Z,51.53
2019-04-10T15:33:49.610Z,52.23
2019-04-10T15:36:20.000Z,52.43
2019-04-10T15:38:48.858Z,52.73
2019-04-10T15:41:18.954Z,51.57
2019-04-10T15:43:47.955Z,49.47
2019-04-10T15:46:17.741Z,50.20
2019-04-10T15:48:47.099Z,47.80
2019-04-10T15:51:16.343Z,48.50
2019-04-10T15:53:45.422Z,46.07
2019-04-10T15:56:15.801Z,49.00
2019-04-10T15:58:45.816Z,46.70
2019-04-10T16:01:18.152Z,47.87
2019-04-10T16:03:47.530Z,47.70
2019-04-10T16:06:17.480Z,47.53
2019-04-10T16:08:48.188Z,45.77
2019-04-10T16:11:36.113Z,84.87
2019-04-10T16:14:16.955Z,51.63
2019-04-10T16:16:54.951Z,69.87
2019-04-10T16:19:39.394Z,64.60
2019-04-10T16:22:27.819Z,49.87
2019-04-10T16:24:59.674Z,48.23
2019-04-10T16:27:28.982Z,52.00
2019-04-10T16:29:59.495Z,47.70
2019-04-10T16:32:29.842Z,50.80
2019-04-10T16:34:59.362Z,49.10
2019-04-10T16:37:28.566Z,49.77
2019-04-10T16:40:03.609Z,51.83
2019-04-10T16:42:30.649Z,48.77
2019-04-10T16:44:59.878Z,51.57
2019-04-10T16:47:30.305Z,48.37
2019-04-10T16:49:59.313Z,49.00
2019-04-10T16:52:29.229Z,49.37
2019-04-10T16:54:59.769Z,50.57
2019-04-10T16:57:29.109Z,49.33
2019-04-10T16:59:59.147Z,49.40
2019-04-10T17:02:29.023Z,48.67
2019-04-10T17:04:58.594Z,49.37
2019-04-10T17:07:27.975Z,48.00
2019-04-10T17:10:04.481Z,51.40
2019-04-10T17:12:29.536Z,45.67
2019-04-10T17:14:59.599Z,48.77
2019-04-10T17:17:28.706Z,46.57
2019-04-10T17:19:59.469Z,44.70
2019-04-10T17:22:37.128Z,46.30
2019-04-10T17:25:02.092Z,45.90
2019-04-10T17:27:35.339Z,44.50
2019-04-10T17:30:05.390Z,45.40
2019-04-10T17:32:34.748Z,43.80
2019-04-10T17:35:05.253Z,44.10
2019-04-10T17:37:35.921Z,44.40
2019-04-10T17:40:08.146Z,43.53
2019-04-10T17:42:38.162Z,42.93
2019-04-10T17:45:08.106Z,40.53
2019-04-10T17:47:38.799Z,36.57
2019-04-10T17:50:10.136Z,37.20
2019-04-10T17:52:40.713Z,34.30
2019-04-10T17:55:11.436Z,34.67
2019-04-10T17:57:43.369Z,35.73
2019-04-10T18:00:25.446Z,38.00
2019-04-10T18:02:55.121Z,36.83
2019-04-10T18:05:24.854Z,35.47
2019-04-10T18:07:54.594Z,38.23
2019-04-10T18:10:24.718Z,37.90
2019-04-10T18:12:54.734Z,35.40
2019-04-10T18:15:24.186Z,39.67
2019-04-10T18:17:53.451Z,44.53
2019-04-10T18:20:24.189Z,39.83
2019-04-10T18:22:53.640Z,56.87
2019-04-10T18:25:22.866Z,54.20
2019-04-10T18:27:52.480Z,48.27
2019-04-10T18:30:21.990Z,43.23
2019-04-10T18:32:51.475Z,37.73
2019-04-10T18:35:21.283Z,34.90
2019-04-10T18:37:50.166Z,33.93
2019-04-10T18:40:19.489Z,33.57
2019-04-10T18:42:48.810Z,33.27
2019-04-10T18:45:18.078Z,36.33
2019-04-10T18:47:47.409Z,48.13
2019-04-10T18:50:18.186Z,39.30
2019-04-10T18:52:47.754Z,35.83
2019-04-10T18:55:16.595Z,32.03
2019-04-10T18:57:45.410Z,31.10
2019-04-10T19:00:40.813Z,29.57
2019-04-10T19:03:27.673Z,31.70
2019-04-10T19:06:00.404Z,31.40
2019-04-10T19:08:30.100Z,30.93
2019-04-10T19:11:13.096Z,31.17
2019-04-10T19:13:30.817Z,31.93
2019-04-10T19:15:59.702Z,29.27
2019-04-10T19:18:29.815Z,32.37
2019-04-10T19:21:00.245Z,30.57
2019-04-10T19:23:29.206Z,32.10
2019-04-10T19:25:58.915Z,31.70
2019-04-10T19:28:35.074Z,29.90
2019-04-10T19:31:12.849Z,41.33
2019-04-10T19:33:33.264Z,34.20
2019-04-10T19:36:03.307Z,32.43
2019-04-10T19:38:33.549Z,34.97
2019-04-10T19:41:02.691Z,32.30
2019-04-10T19:43:33.151Z,33.33
2019-04-10T19:46:04.103Z,29.53
2019-04-10T19:48:35.148Z,28.90
2019-04-10T19:51:05.727Z,28.93
2019-04-10T19:53:35.307Z,29.50
2019-04-10T19:56:04.962Z,30.57
2019-04-10T19:58:35.072Z,30.07
2019-04-10T20:01:06.286Z,28.57
2019-04-10T20:03:35.655Z,33.87
2019-04-10T20:06:05.955Z,31.87
2019-04-10T20:08:35.692Z,31.37
2019-04-10T20:11:05.314Z,38.53
2019-04-10T20:13:34.870Z,37.27
2019-04-10T20:16:04.358Z,34.77
2019-04-10T20:18:34.920Z,32.80
2019-04-10T20:21:04.108Z,31.23
2019-04-10T20:23:34.021Z,30.83
2019-04-10T20:26:03.317Z,30.17
2019-04-10T20:28:33.099Z,30.13
2019-04-10T20:31:02.509Z,38.50
2019-04-10T20:33:32.654Z,33.87
2019-04-10T20:36:02.071Z,34.10
2019-04-10T20:38:32.360Z,34.53
2019-04-10T20:41:02.669Z,35.83
2019-04-10T20:43:32.668Z,35.47
2019-04-10T20:46:05.063Z,36.70
2019-04-10T20:48:34.283Z,32.27
2019-04-10T20:51:04.078Z,29.93
2019-04-10T20:53:33.784Z,32.07
2019-04-10T20:56:03.443Z,31.70
2019-04-10T20:58:34.001Z,32.77
2019-04-10T21:01:03.646Z,33.27
2019-04-10T21:03:33.840Z,29.83
2019-04-10T21:06:02.806Z,30.10
2019-04-10T21:08:32.020Z,29.90
2019-04-10T21:11:01.747Z,31.33
2019-04-10T21:13:31.837Z,30.03
2019-04-10T21:16:00.798Z,30.03
2019-04-10T21:18:29.938Z,32.07
2019-04-10T21:20:59.589Z,29.90
2019-04-10T21:23:29.531Z,29.10
2019-04-10T21:25:59.463Z,31.87
2019-04-10T21:28:28.743Z,32.70
2019-04-10T21:31:15.964Z,30.37
2019-04-10T21:34:03.414Z,29.80
2019-04-10T21:36:34.939Z,28.50
2019-04-10T21:39:05.579Z,27.93
2019-04-10T21:41:35.190Z,29.43
2019-04-10T21:44:04.798Z,27.60
2019-04-10T21:46:34.641Z,28.23
2019-04-10T21:49:03.725Z,27.37
2019-04-10T21:51:33.452Z,29.37
2019-04-10T21:54:02.714Z,30.07
2019-04-10T21:56:33.035Z,28.23
2019-04-10T21:59:03.220Z,27.97
2019-04-10T22:01:32.585Z,28.87
2019-04-10T22:04:02.762Z,28.33
2019-04-10T22:06:49.799Z,28.97
2019-04-10T22:09:45.209Z,29.43
2019-04-10T22:12:29.807Z,29.63
2019-04-10T22:14:52.631Z,32.27
2019-04-10T22:17:22.641Z,32.10
2019-04-10T22:19:52.778Z,29.67
2019-04-10T22:22:22.469Z,29.30
2019-04-10T22:24:52.653Z,29.47
2019-04-10T22:27:21.626Z,31.50
2019-04-10T22:29:52.159Z,32.93
2019-04-10T22:32:22.700Z,31.20
2019-04-10T22:34:52.790Z,33.73
2019-04-10T22:37:22.098Z,34.83
2019-04-10T22:39:52.226Z,34.17
2019-04-10T22:42:33.941Z,35.67
2019-04-10T22:44:52.561Z,34.20
2019-04-10T22:47:21.405Z,36.57
2019-04-10T22:49:51.440Z,35.47
2019-04-10T22:52:20.776Z,36.47
2019-04-10T22:54:50.874Z,39.00
2019-04-10T22:57:21.046Z,37.37
2019-04-10T22:59:51.167Z,37.20
2019-04-10T23:02:21.398Z,37.07
2019-04-10T23:04:51.298Z,37.23
2019-04-10T23:07:20.542Z,36.97
2019-04-10T23:09:50.642Z,37.60
2019-04-10T23:12:20.353Z,37.13
2019-04-10T23:14:49.331Z,36.27
2019-04-10T23:17:18.942Z,36.97
2019-04-10T23:19:47.931Z,39.50
2019-04-10T23:22:17.370Z,36.67
2019-04-10T23:24:47.604Z,35.70
2019-04-10T23:27:17.723Z,39.60
2019-04-10T23:29:47.049Z,38.00
2019-04-10T23:32:17.243Z,34.80
2019-04-10T23:34:47.178Z,38.03
2019-04-10T23:37:16.350Z,31.63
2019-04-10T23:39:46.177Z,31.03
2019-04-10T23:42:15.349Z,27.67
2019-04-10T23:44:44.927Z,27.77
2019-04-10T23:47:13.922Z,26.97
2019-04-10T23:49:43.753Z,28.40
2019-04-10T23:52:13.724Z,24.63
2019-04-10T23:54:43.640Z,24.50
2019-04-10T23:57:13.508Z,23.37
2019-04-10T23:59:42.706Z,24.30
